createdAt,value
2017-08-06T00:00:29.641Z,23.24
2017-08-06T00:01:30.274Z,23.25
2017-08-06T00:02:30.959Z,23.27
2017-08-06T00:03:31.594Z,23.21
2017-08-06T00:04:32.250Z,23.21
2017-08-06T00:05:33.036Z,23.23
2017-08-06T00:06:33.666Z,23.23
2017-08-06T00:07:34.312Z,23.24
2017-08-06T00:08:34.943Z,23.31
2017-08-06T00:09:35.577Z,23.23
2017-08-06T00:10:36.213Z,23.21
2017-08-06T00:11:36.851Z,23.25
2017-08-06T00:12:37.484Z,23.20
2017-08-06T00:13:38.328Z,23.36
2017-08-06T00:14:38.965Z,23.25
2017-08-06T00:15:39.599Z,23.24
2017-08-06T00:16:40.239Z,23.23
2017-08-06T00:17:40.884Z,23.20
2017-08-06T00:18:41.521Z,23.21
2017-08-06T00:19:42.165Z,23.27
2017-08-06T00:20:42.790Z,23.28
2017-08-06T00:21:43.732Z,23.18
2017-08-06T00:22:44.370Z,23.17
2017-08-06T00:23:45.001Z,23.10
2017-08-06T00:24:45.645Z,23.28
2017-08-06T00:25:46.276Z,23.25
2017-08-06T00:26:46.921Z,23.24
2017-08-06T00:27:47.605Z,23.24
2017-08-06T00:28:48.239Z,23.23
2017-08-06T00:29:48.873Z,23.25
2017-08-06T00:30:49.709Z,23.21
2017-08-06T00:31:50.349Z,23.23
2017-08-06T00:32:50.984Z,23.21
2017-08-06T00:33:51.621Z,23.15
2017-08-06T00:34:52.256Z,23.15
2017-08-06T00:35:52.892Z,23.18
2017-08-06T00:36:53.528Z,23.17
2017-08-06T00:37:54.163Z,23.17
2017-08-06T00:38:54.951Z,23.15
2017-08-06T00:39:55.592Z,23.20
2017-08-06T00:40:56.227Z,23.23
2017-08-06T00:41:56.866Z,23.15
2017-08-06T00:42:57.505Z,23.20
2017-08-06T00:43:58.135Z,23.15
2017-08-06T00:44:58.771Z,23.13
2017-08-06T00:45:59.412Z,23.15
2017-08-06T00:47:00.245Z,23.08
2017-08-06T00:48:00.882Z,23.06
2017-08-06T00:49:01.523Z,23.05
2017-08-06T00:50:02.157Z,23.02
2017-08-06T00:51:02.796Z,23.05
2017-08-06T00:52:03.433Z,23.00
2017-08-06T00:53:04.073Z,23.05
2017-08-06T00:54:04.711Z,23.02
2017-08-06T00:55:05.493Z,23.03
2017-08-06T00:56:06.138Z,23.02
2017-08-06T00:57:06.771Z,23.06
2017-08-06T00:58:07.360Z,23.10
2017-08-06T00:59:07.993Z,22.98
2017-08-06T01:00:08.635Z,23.00
2017-08-06T01:01:09.267Z,23.06
2017-08-06T01:02:09.903Z,23.02
2017-08-06T01:03:10.538Z,22.98
2017-08-06T01:04:11.372Z,23.10
2017-08-06T01:05:12.016Z,23.08
2017-08-06T01:06:12.648Z,23.05
2017-08-06T01:07:13.290Z,23.00
2017-08-06T01:08:13.923Z,23.08
2017-08-06T01:09:14.612Z,23.10
2017-08-06T01:10:15.255Z,22.98
2017-08-06T01:11:15.887Z,23.06
2017-08-06T01:12:16.725Z,23.03
2017-08-06T01:13:17.378Z,23.08
2017-08-06T01:14:18.002Z,23.00
2017-08-06T01:15:18.639Z,22.99
2017-08-06T01:16:19.283Z,22.98
2017-08-06T01:17:19.925Z,23.06
2017-08-06T01:18:20.554Z,23.09
2017-08-06T01:19:21.190Z,22.98
2017-08-06T01:20:22.023Z,23.06
2017-08-06T01:21:22.670Z,23.02
2017-08-06T01:22:23.299Z,22.98
2017-08-06T01:23:23.934Z,22.91
2017-08-06T01:24:24.568Z,22.99
2017-08-06T01:25:25.205Z,22.94
2017-08-06T01:26:25.840Z,22.91
2017-08-06T01:27:26.483Z,22.91
2017-08-06T01:28:27.313Z,22.94
2017-08-06T01:29:27.949Z,22.91
2017-08-06T01:30:28.585Z,22.83
2017-08-06T01:31:29.224Z,22.91
2017-08-06T01:32:29.857Z,22.83
2017-08-06T01:33:30.494Z,22.87
2017-08-06T01:34:31.133Z,22.98
2017-08-06T01:35:31.778Z,22.94
2017-08-06T01:36:32.612Z,22.87
2017-08-06T01:37:33.242Z,22.87
2017-08-06T01:38:33.892Z,22.96
2017-08-06T01:39:34.520Z,22.83
2017-08-06T01:40:35.153Z,22.96
2017-08-06T01:41:35.800Z,22.88
2017-08-06T01:42:36.434Z,22.93
2017-08-06T01:43:37.078Z,22.94
2017-08-06T01:44:37.708Z,22.91
2017-08-06T01:45:38.546Z,22.94
2017-08-06T01:46:39.187Z,22.85
2017-08-06T01:47:39.823Z,22.87
2017-08-06T01:48:40.460Z,22.93
2017-08-06T01:49:41.100Z,22.90
2017-08-06T01:50:41.738Z,22.88
2017-08-06T01:51:42.374Z,22.90
2017-08-06T01:52:43.008Z,22.85
2017-08-06T01:53:43.804Z,22.88
2017-08-06T01:54:44.434Z,22.88
2017-08-06T01:55:45.074Z,22.85
2017-08-06T01:56:45.719Z,22.85
2017-08-06T01:57:46.350Z,22.78
2017-08-06T01:58:46.985Z,22.78
2017-08-06T01:59:47.618Z,22.83
2017-08-06T02:00:48.259Z,22.78
2017-08-06T02:01:49.094Z,22.80
2017-08-06T02:02:49.731Z,22.83
2017-08-06T02:03:50.367Z,22.80
2017-08-06T02:04:51.002Z,22.80
2017-08-06T02:05:51.639Z,22.75
2017-08-06T02:06:52.272Z,22.76
2017-08-06T02:07:52.915Z,22.78
2017-08-06T02:08:53.547Z,22.75
2017-08-06T02:09:54.332Z,22.78
2017-08-06T02:10:54.967Z,22.75
2017-08-06T02:11:55.601Z,22.83
2017-08-06T02:12:56.245Z,22.70
2017-08-06T02:13:56.883Z,22.70
2017-08-06T02:14:57.514Z,22.73
2017-08-06T02:15:58.148Z,22.73
2017-08-06T02:16:58.791Z,22.72
2017-08-06T02:17:59.428Z,22.68
2017-08-06T02:19:00.265Z,22.78
2017-08-06T02:20:00.900Z,22.70
2017-08-06T02:21:01.546Z,22.69
2017-08-06T02:22:02.187Z,22.72
2017-08-06T02:23:02.816Z,22.73
2017-08-06T02:24:03.452Z,22.70
2017-08-06T02:25:04.086Z,22.60
2017-08-06T02:26:04.722Z,22.65
2017-08-06T02:27:05.513Z,22.60
2017-08-06T02:28:06.146Z,22.65
2017-08-06T02:29:06.780Z,22.55
2017-08-06T02:30:07.423Z,22.63
2017-08-06T02:31:08.005Z,22.63
2017-08-06T02:32:08.646Z,22.59
2017-08-06T02:33:09.282Z,22.62
2017-08-06T02:34:09.911Z,22.60
2017-08-06T02:35:10.746Z,22.57
2017-08-06T02:36:11.385Z,22.62
2017-08-06T02:37:12.026Z,22.60
2017-08-06T02:38:12.655Z,22.59
2017-08-06T02:39:13.302Z,22.62
2017-08-06T02:40:13.943Z,22.55
2017-08-06T02:41:14.578Z,22.62
2017-08-06T02:42:15.208Z,22.59
2017-08-06T02:43:16.100Z,22.59
2017-08-06T02:44:16.732Z,22.66
2017-08-06T02:45:17.367Z,22.59
2017-08-06T02:46:18.010Z,22.51
2017-08-06T02:47:18.649Z,22.50
2017-08-06T02:48:19.292Z,22.51
2017-08-06T02:49:19.918Z,22.60
2017-08-06T02:50:20.555Z,22.51
2017-08-06T02:51:21.443Z,22.53
2017-08-06T02:52:22.078Z,22.48
2017-08-06T02:53:22.712Z,22.53
2017-08-06T02:54:23.347Z,22.41
2017-08-06T02:55:23.989Z,22.51
2017-08-06T02:56:24.621Z,22.51
2017-08-06T02:57:25.256Z,22.39
2017-08-06T02:58:25.891Z,22.51
2017-08-06T02:59:26.531Z,22.43
2017-08-06T03:00:27.368Z,22.36
2017-08-06T03:01:28.012Z,22.36
2017-08-06T03:02:28.639Z,22.38
2017-08-06T03:03:29.273Z,22.39
2017-08-06T03:04:29.920Z,22.36
2017-08-06T03:05:30.549Z,22.47
2017-08-06T03:06:31.191Z,22.38
2017-08-06T03:07:31.828Z,22.45
2017-08-06T03:08:32.661Z,22.41
2017-08-06T03:09:33.299Z,22.45
2017-08-06T03:10:33.935Z,22.41
2017-08-06T03:11:34.576Z,22.32
2017-08-06T03:12:35.208Z,22.41
2017-08-06T03:13:35.850Z,22.39
2017-08-06T03:14:36.488Z,22.47
2017-08-06T03:15:37.124Z,22.43
2017-08-06T03:16:37.957Z,22.41
2017-08-06T03:17:38.595Z,22.38
2017-08-06T03:18:39.232Z,22.44
2017-08-06T03:19:39.872Z,22.32
2017-08-06T03:20:40.510Z,22.44
2017-08-06T03:21:41.149Z,22.38
2017-08-06T03:22:41.788Z,22.38
2017-08-06T03:23:42.424Z,22.38
2017-08-06T03:24:43.261Z,22.38
2017-08-06T03:25:43.901Z,22.28
2017-08-06T03:26:44.534Z,22.38
2017-08-06T03:27:45.172Z,22.33
2017-08-06T03:28:45.804Z,22.41
2017-08-06T03:29:46.440Z,22.36
2017-08-06T03:30:47.075Z,22.44
2017-08-06T03:31:47.709Z,22.38
2017-08-06T03:32:48.346Z,22.26
2017-08-06T03:33:49.180Z,22.32
2017-08-06T03:34:49.826Z,22.29
2017-08-06T03:35:50.455Z,22.23
2017-08-06T03:36:51.089Z,22.26
2017-08-06T03:37:51.724Z,22.28
2017-08-06T03:38:52.358Z,22.28
2017-08-06T03:39:53.012Z,22.29
2017-08-06T03:40:53.633Z,22.25
2017-08-06T03:41:54.470Z,22.28
2017-08-06T03:42:55.113Z,22.23
2017-08-06T03:43:55.743Z,22.29
2017-08-06T03:44:56.382Z,22.26
2017-08-06T03:45:57.022Z,22.23
2017-08-06T03:46:57.658Z,22.30
2017-08-06T03:47:58.289Z,22.26
2017-08-06T03:48:58.924Z,22.26
2017-08-06T03:49:59.761Z,22.22
2017-08-06T03:51:00.402Z,22.29
2017-08-06T03:52:01.047Z,22.30
2017-08-06T03:53:01.683Z,22.28
2017-08-06T03:54:02.319Z,22.22
2017-08-06T03:55:02.951Z,22.25
2017-08-06T03:56:03.594Z,22.23
2017-08-06T03:57:04.226Z,22.18
2017-08-06T03:58:05.066Z,22.26
2017-08-06T03:59:05.699Z,22.26
2017-08-06T04:00:06.340Z,22.22
2017-08-06T04:01:06.973Z,22.26
2017-08-06T04:02:07.608Z,22.20
2017-08-06T04:03:08.242Z,22.23
2017-08-06T04:04:08.884Z,22.25
2017-08-06T04:05:09.520Z,22.23
2017-08-06T04:06:10.362Z,22.23
2017-08-06T04:07:10.997Z,22.22
2017-08-06T04:08:11.629Z,22.25
2017-08-06T04:09:12.267Z,22.26
2017-08-06T04:10:12.907Z,22.23
2017-08-06T04:11:13.540Z,22.23
2017-08-06T04:12:14.174Z,22.23
2017-08-06T04:13:14.807Z,22.22
2017-08-06T04:14:15.450Z,22.28
2017-08-06T04:15:16.281Z,22.25
2017-08-06T04:16:16.920Z,22.18
2017-08-06T04:17:17.554Z,22.13
2017-08-06T04:18:18.188Z,22.25
2017-08-06T04:19:18.822Z,22.22
2017-08-06T04:20:19.458Z,22.14
2017-08-06T04:21:20.093Z,22.11
2017-08-06T04:22:20.728Z,22.18
2017-08-06T04:23:21.570Z,22.18
2017-08-06T04:24:22.208Z,22.14
2017-08-06T04:25:22.847Z,22.14
2017-08-06T04:26:23.480Z,22.10
2017-08-06T04:27:24.117Z,22.13
2017-08-06T04:28:24.757Z,22.13
2017-08-06T04:29:25.393Z,22.10
2017-08-06T04:30:26.025Z,22.10
2017-08-06T04:31:26.871Z,22.10
2017-08-06T04:32:27.504Z,22.10
2017-08-06T04:33:28.137Z,22.17
2017-08-06T04:34:28.774Z,22.13
2017-08-06T04:35:29.412Z,22.13
2017-08-06T04:36:30.043Z,22.13
2017-08-06T04:37:30.685Z,22.13
2017-08-06T04:38:31.320Z,22.10
2017-08-06T04:39:32.203Z,22.15
2017-08-06T04:40:32.841Z,22.17
2017-08-06T04:41:33.477Z,22.13
2017-08-06T04:42:34.118Z,22.14
2017-08-06T04:43:34.750Z,22.08
2017-08-06T04:44:35.385Z,22.08
2017-08-06T04:45:36.024Z,22.08
2017-08-06T04:46:36.666Z,22.14
2017-08-06T04:47:37.307Z,22.14
2017-08-06T04:48:38.184Z,22.11
2017-08-06T04:49:38.825Z,22.08
2017-08-06T04:50:39.468Z,22.08
2017-08-06T04:51:40.100Z,22.11
2017-08-06T04:52:40.733Z,22.11
2017-08-06T04:53:42.174Z,22.15
2017-08-06T04:54:42.811Z,22.13
2017-08-06T04:55:43.445Z,21.99
2017-08-06T04:56:44.382Z,22.14
2017-08-06T04:57:45.014Z,22.17
2017-08-06T04:58:45.654Z,22.13
2017-08-06T04:59:46.289Z,22.08
2017-08-06T05:00:46.976Z,22.07
2017-08-06T05:01:47.609Z,22.06
2017-08-06T05:02:48.250Z,22.02
2017-08-06T05:03:48.884Z,22.10
2017-08-06T05:04:49.669Z,22.08
2017-08-06T05:05:50.305Z,22.07
2017-08-06T05:06:50.941Z,22.04
2017-08-06T05:07:51.577Z,22.00
2017-08-06T05:08:52.211Z,22.04
2017-08-06T05:09:52.846Z,22.07
2017-08-06T05:10:53.482Z,22.04
2017-08-06T05:11:54.117Z,22.10
2017-08-06T05:12:54.951Z,22.07
2017-08-06T05:13:55.595Z,22.00
2017-08-06T05:14:56.221Z,22.02
2017-08-06T05:15:56.856Z,22.08
2017-08-06T05:16:57.489Z,22.10
2017-08-06T05:17:58.181Z,22.02
2017-08-06T05:18:58.813Z,22.07
2017-08-06T05:19:59.449Z,22.04
2017-08-06T05:21:00.290Z,22.06
2017-08-06T05:22:00.927Z,22.04
2017-08-06T05:23:01.565Z,22.02
2017-08-06T05:24:02.197Z,22.04
2017-08-06T05:25:02.835Z,22.08
2017-08-06T05:26:03.468Z,22.07
2017-08-06T05:27:04.102Z,22.02
2017-08-06T05:28:04.749Z,22.06
2017-08-06T05:29:05.381Z,22.06
2017-08-06T05:30:06.275Z,22.07
2017-08-06T05:31:06.905Z,22.04
2017-08-06T05:32:07.546Z,22.04
2017-08-06T05:33:08.177Z,21.99
2017-08-06T05:34:08.825Z,22.00
2017-08-06T05:35:09.453Z,21.99
2017-08-06T05:36:10.088Z,21.99
2017-08-06T05:37:10.723Z,22.04
2017-08-06T05:38:11.611Z,21.99
2017-08-06T05:39:12.246Z,22.00
2017-08-06T05:40:12.891Z,22.00
2017-08-06T05:41:13.519Z,22.04
2017-08-06T05:42:14.159Z,21.99
2017-08-06T05:43:14.805Z,22.02
2017-08-06T05:44:15.434Z,21.85
2017-08-06T05:45:16.065Z,21.95
2017-08-06T05:46:16.953Z,22.07
2017-08-06T05:47:17.591Z,21.95
2017-08-06T05:48:18.225Z,21.91
2017-08-06T05:49:18.861Z,22.00
2017-08-06T05:50:19.496Z,21.93
2017-08-06T05:51:20.130Z,21.91
2017-08-06T05:52:20.771Z,21.89
2017-08-06T05:53:21.405Z,21.98
2017-08-06T05:54:22.241Z,21.91
2017-08-06T05:55:22.876Z,21.85
2017-08-06T05:56:23.518Z,21.93
2017-08-06T05:57:24.155Z,21.92
2017-08-06T05:58:24.787Z,21.89
2017-08-06T05:59:25.424Z,21.89
2017-08-06T06:00:26.059Z,21.92
2017-08-06T06:01:26.699Z,21.98
2017-08-06T06:02:27.332Z,21.98
2017-08-06T06:03:27.973Z,21.92
2017-08-06T06:04:28.612Z,21.96
2017-08-06T06:05:29.247Z,21.95
2017-08-06T06:06:29.880Z,21.92
2017-08-06T06:07:30.522Z,21.93
2017-08-06T06:08:31.218Z,21.96
2017-08-06T06:09:31.847Z,22.02
2017-08-06T06:10:32.481Z,21.95
2017-08-06T06:11:33.366Z,21.95
2017-08-06T06:12:34.002Z,21.98
2017-08-06T06:13:34.637Z,21.95
2017-08-06T06:14:35.277Z,21.96
2017-08-06T06:15:35.915Z,21.91
2017-08-06T06:16:36.547Z,21.95
2017-08-06T06:17:37.187Z,21.95
2017-08-06T06:18:37.819Z,21.96
2017-08-06T06:19:38.704Z,21.95
2017-08-06T06:20:39.338Z,21.95
2017-08-06T06:21:39.979Z,21.92
2017-08-06T06:22:40.616Z,22.00
2017-08-06T06:23:41.249Z,22.00
2017-08-06T06:24:41.883Z,22.06
2017-08-06T06:25:42.522Z,22.08
2017-08-06T06:26:43.159Z,22.02
2017-08-06T06:27:43.949Z,21.99
2017-08-06T06:28:44.579Z,21.99
2017-08-06T06:29:45.221Z,21.93
2017-08-06T06:30:45.852Z,21.87
2017-08-06T06:31:46.492Z,22.02
2017-08-06T06:32:47.134Z,22.02
2017-08-06T06:33:47.769Z,22.00
2017-08-06T06:34:48.406Z,21.96
2017-08-06T06:35:49.236Z,22.04
2017-08-06T06:36:49.880Z,22.06
2017-08-06T06:37:50.512Z,22.06
2017-08-06T06:38:51.149Z,22.06
2017-08-06T06:39:51.782Z,22.00
2017-08-06T06:40:52.419Z,22.04
2017-08-06T06:41:53.052Z,22.10
2017-08-06T06:42:53.638Z,22.07
2017-08-06T06:43:54.273Z,22.07
2017-08-06T06:44:55.063Z,22.11
2017-08-06T06:45:55.697Z,22.07
2017-08-06T06:46:56.341Z,22.04
2017-08-06T06:47:56.976Z,22.04
2017-08-06T06:48:57.609Z,22.07
2017-08-06T06:49:58.243Z,22.00
2017-08-06T06:50:58.881Z,22.08
2017-08-06T06:51:59.517Z,22.02
2017-08-06T06:53:00.351Z,22.13
2017-08-06T06:54:00.992Z,22.13
2017-08-06T06:55:01.619Z,22.14
2017-08-06T06:56:02.284Z,22.10
2017-08-06T06:57:02.947Z,22.06
2017-08-06T06:58:03.579Z,22.10
2017-08-06T06:59:04.214Z,22.06
2017-08-06T07:00:04.907Z,22.11
2017-08-06T07:01:05.689Z,22.07
2017-08-06T07:02:06.323Z,22.11
2017-08-06T07:03:06.960Z,22.02
2017-08-06T07:04:07.593Z,22.14
2017-08-06T07:05:08.229Z,22.13
2017-08-06T07:06:08.870Z,22.06
2017-08-06T07:07:09.510Z,22.14
2017-08-06T07:08:10.141Z,22.11
2017-08-06T07:09:10.981Z,22.11
2017-08-06T07:10:11.621Z,22.10
2017-08-06T07:11:12.253Z,22.15
2017-08-06T07:12:12.892Z,22.18
2017-08-06T07:13:13.527Z,22.14
2017-08-06T07:14:14.167Z,22.23
2017-08-06T07:15:14.805Z,22.23
2017-08-06T07:16:15.440Z,22.10
2017-08-06T07:17:16.124Z,22.23
2017-08-06T07:18:16.960Z,22.18
2017-08-06T07:19:17.602Z,22.22
2017-08-06T07:20:18.234Z,22.23
2017-08-06T07:21:18.925Z,22.23
2017-08-06T07:22:19.557Z,22.29
2017-08-06T07:23:20.193Z,22.26
2017-08-06T07:24:20.830Z,22.29
2017-08-06T07:25:21.468Z,22.26
2017-08-06T07:26:22.308Z,22.29
2017-08-06T07:27:22.941Z,22.26
2017-08-06T07:28:23.585Z,22.25
2017-08-06T07:29:24.221Z,22.26
2017-08-06T07:30:24.854Z,22.32
2017-08-06T07:31:25.499Z,22.26
2017-08-06T07:32:26.135Z,22.26
2017-08-06T07:33:26.770Z,22.36
2017-08-06T07:34:27.555Z,22.29
2017-08-06T07:35:28.195Z,22.44
2017-08-06T07:36:28.827Z,22.35
2017-08-06T07:37:29.466Z,22.33
2017-08-06T07:38:30.104Z,22.33
2017-08-06T07:39:30.737Z,22.25
2017-08-06T07:40:31.378Z,22.36
2017-08-06T08:07:46.200Z,23.08
2017-08-06T08:55:51.675Z,23.06
2017-08-06T09:00:30.961Z,23.10
2017-08-06T10:13:47.577Z,23.73
2017-08-06T12:17:10.470Z,24.58
2017-08-06T12:54:28.075Z,24.77
2017-08-06T13:47:31.450Z,25.01
2017-08-06T13:48:32.488Z,25.04
2017-08-06T15:17:38.748Z,25.55
2017-08-06T15:36:55.698Z,25.62
2017-08-06T15:37:56.336Z,25.60
2017-08-06T15:38:56.984Z,25.60
2017-08-06T15:39:57.618Z,25.58
2017-08-06T15:40:58.259Z,25.59
2017-08-06T15:41:58.894Z,25.62
2017-08-06T15:42:59.543Z,25.60
2017-08-06T15:44:00.177Z,25.59
2017-08-06T15:45:00.974Z,25.66
2017-08-06T15:46:01.613Z,25.72
2017-08-06T15:47:02.260Z,25.60
2017-08-06T15:48:02.890Z,25.62
2017-08-06T15:49:03.530Z,25.65
2017-08-06T15:50:04.175Z,25.59
2017-08-06T15:51:04.817Z,25.60
2017-08-06T15:52:05.456Z,25.68
2017-08-06T15:53:06.351Z,25.65
2017-08-06T15:54:06.994Z,25.63
2017-08-06T15:55:07.632Z,25.65
2017-08-06T15:56:08.270Z,25.66
2017-08-06T15:57:08.963Z,25.66
2017-08-06T15:58:09.602Z,25.68
2017-08-06T15:59:10.246Z,25.63
2017-08-06T16:00:10.884Z,25.65
2017-08-06T16:01:11.730Z,25.68
2017-08-06T16:02:12.428Z,25.68
2017-08-06T16:03:13.071Z,25.65
2017-08-06T16:04:13.708Z,25.68
2017-08-06T16:05:14.356Z,25.68
2017-08-06T16:06:14.994Z,25.63
2017-08-06T16:07:15.633Z,25.63
2017-08-06T16:08:16.271Z,25.69
2017-08-06T16:09:16.908Z,25.65
2017-08-06T16:10:17.699Z,25.63
2017-08-06T16:11:18.349Z,25.68
2017-08-06T16:12:18.989Z,25.62
2017-08-06T16:13:19.626Z,25.72
2017-08-06T16:14:20.277Z,25.73
2017-08-06T16:15:20.922Z,25.66
2017-08-06T16:16:21.556Z,25.73
2017-08-06T16:17:22.201Z,25.63
2017-08-06T16:18:23.088Z,25.73
2017-08-06T16:19:23.728Z,25.70
2017-08-06T16:20:24.369Z,25.72
2017-08-06T16:21:25.014Z,25.72
2017-08-06T16:22:25.651Z,25.81
2017-08-06T16:23:26.289Z,25.73
2017-08-06T16:24:26.934Z,25.78
2017-08-06T16:25:27.568Z,25.80
2017-08-06T16:26:28.409Z,25.77
2017-08-06T16:27:29.050Z,25.77
2017-08-06T16:28:29.689Z,25.75
2017-08-06T16:29:30.331Z,25.73
2017-08-06T16:30:30.977Z,25.80
2017-08-06T16:31:31.621Z,25.73
2017-08-06T16:32:32.258Z,25.72
2017-08-06T16:33:32.895Z,25.72
2017-08-06T16:34:33.686Z,25.73
2017-08-06T16:35:34.326Z,25.78
2017-08-06T16:36:34.977Z,25.73
2017-08-06T16:37:35.618Z,25.77
2017-08-06T16:38:36.254Z,25.75
2017-08-06T16:39:36.903Z,25.75
2017-08-06T16:40:37.552Z,25.73
2017-08-06T16:41:38.177Z,25.72
2017-08-06T16:42:38.817Z,25.68
2017-08-06T16:43:39.656Z,25.70
2017-08-06T16:44:40.302Z,25.75
2017-08-06T16:45:40.940Z,25.72
2017-08-06T16:46:41.581Z,25.70
2017-08-06T16:47:42.218Z,25.77
2017-08-06T16:48:42.857Z,25.69
2017-08-06T16:49:43.501Z,25.68
2017-08-06T16:50:44.144Z,25.78
2017-08-06T16:51:44.986Z,25.75
2017-08-06T16:52:45.622Z,25.66
2017-08-06T16:53:46.261Z,25.77
2017-08-06T16:54:46.911Z,25.72
2017-08-06T16:55:47.549Z,25.70
2017-08-06T16:56:48.193Z,25.70
2017-08-06T16:57:48.836Z,25.77
2017-08-06T16:58:49.479Z,25.80
2017-08-06T16:59:50.267Z,25.66
2017-08-06T17:00:50.906Z,25.77
2017-08-06T17:01:51.557Z,25.75
2017-08-06T17:02:52.190Z,25.75
2017-08-06T17:03:52.829Z,25.75
2017-08-06T17:04:53.474Z,25.77
2017-08-06T17:05:54.113Z,25.80
2017-08-06T17:06:54.759Z,25.72
2017-08-06T17:07:55.597Z,25.70
2017-08-06T17:08:56.244Z,25.78
2017-08-06T17:09:56.879Z,25.73
2017-08-06T17:10:57.518Z,25.72
2017-08-06T17:11:58.157Z,25.81
2017-08-06T17:12:58.793Z,25.75
2017-08-06T17:13:59.435Z,25.84
2017-08-06T17:15:00.080Z,25.77
2017-08-06T17:16:00.870Z,25.84
2017-08-06T17:17:01.516Z,25.72
2017-08-06T17:18:02.151Z,25.84
2017-08-06T17:19:02.797Z,25.75
2017-08-06T17:20:03.439Z,25.85
2017-08-06T17:21:04.132Z,25.75
2017-08-06T17:22:04.771Z,25.78
2017-08-06T17:23:05.412Z,25.80
2017-08-06T17:24:06.050Z,25.77
2017-08-06T17:25:06.892Z,25.85
2017-08-06T17:26:07.533Z,25.78
2017-08-06T17:27:08.177Z,25.73
2017-08-06T17:28:08.815Z,25.77
2017-08-06T17:29:09.454Z,25.77
2017-08-06T17:30:10.096Z,25.80
2017-08-06T17:31:10.742Z,25.84
2017-08-06T17:32:11.379Z,25.83
2017-08-06T17:33:12.319Z,25.85
2017-08-06T17:34:12.960Z,25.88
2017-08-06T17:35:13.606Z,25.72
2017-08-06T17:36:14.245Z,25.84
2017-08-06T17:37:14.886Z,25.84
2017-08-06T17:38:15.527Z,25.80
2017-08-06T17:39:16.223Z,25.84
2017-08-06T17:40:16.858Z,25.85
2017-08-06T17:41:17.654Z,25.85
2017-08-06T17:42:18.297Z,25.84
2017-08-06T17:43:18.933Z,25.81
2017-08-06T17:44:19.580Z,25.83
2017-08-06T17:45:20.225Z,25.83
2017-08-06T17:46:20.863Z,25.84
2017-08-06T17:47:21.504Z,25.81
2017-08-06T17:48:22.144Z,25.80
2017-08-06T17:49:22.984Z,25.80
2017-08-06T17:50:23.623Z,25.80
2017-08-06T17:51:24.262Z,25.84
2017-08-06T17:52:24.903Z,25.84
2017-08-06T17:53:25.552Z,25.87
2017-08-06T17:54:26.184Z,25.88
2017-08-06T17:55:26.830Z,25.85
2017-08-06T17:56:27.473Z,25.87
2017-08-06T17:57:28.116Z,25.88
2017-08-06T17:58:29.010Z,25.87
2017-08-06T17:59:29.644Z,25.87
2017-08-06T18:00:30.289Z,25.84
2017-08-06T18:01:30.931Z,25.84
2017-08-06T18:02:31.576Z,25.90
2017-08-06T18:03:32.212Z,25.84
2017-08-06T18:04:32.862Z,25.84
2017-08-06T18:05:33.502Z,25.85
2017-08-06T18:06:34.289Z,25.85
2017-08-06T18:07:34.930Z,25.88
2017-08-06T18:08:35.567Z,25.91
2017-08-06T18:09:36.214Z,26.02
2017-08-06T18:10:36.850Z,25.93
2017-08-06T18:11:37.503Z,26.00
2017-08-06T18:12:38.133Z,25.96
2017-08-06T18:13:38.783Z,25.99
2017-08-06T18:14:39.667Z,26.03
2017-08-06T18:15:40.306Z,26.02
2017-08-06T18:16:40.946Z,26.02
2017-08-06T18:17:41.586Z,25.90
2017-08-06T18:18:42.227Z,25.96
2017-08-06T18:19:42.873Z,25.99
2017-08-06T18:20:43.568Z,26.02
2017-08-06T18:21:44.210Z,26.05
2017-08-06T18:22:45.108Z,25.95
2017-08-06T18:23:45.747Z,25.99
2017-08-06T18:24:46.391Z,25.99
2017-08-06T18:25:47.031Z,25.96
2017-08-06T18:26:47.671Z,26.02
2017-08-06T18:27:48.311Z,25.96
2017-08-06T18:28:48.907Z,26.05
2017-08-06T18:29:49.545Z,25.99
2017-08-06T18:30:50.391Z,26.05
2017-08-06T18:31:51.031Z,25.87
2017-08-06T18:32:51.676Z,25.93
2017-08-06T18:33:52.312Z,25.91
2017-08-06T18:34:52.952Z,25.99
2017-08-06T18:35:53.591Z,25.93
2017-08-06T18:36:54.231Z,26.02
2017-08-06T18:37:54.878Z,25.84
2017-08-06T18:38:55.512Z,25.96
2017-08-06T18:39:56.402Z,25.91
2017-08-06T18:40:57.046Z,25.85
2017-08-06T18:41:57.684Z,25.85
2017-08-06T18:42:58.327Z,25.83
2017-08-06T18:43:58.964Z,25.87
2017-08-06T18:44:59.663Z,25.88
2017-08-06T18:46:00.308Z,25.88
2017-08-06T18:47:00.949Z,25.85
2017-08-06T18:48:01.697Z,25.84
2017-08-06T18:49:02.344Z,25.81
2017-08-06T18:50:02.976Z,25.87
2017-08-06T18:51:03.615Z,25.85
2017-08-06T18:52:04.255Z,25.85
2017-08-06T18:53:04.895Z,25.85
2017-08-06T18:54:05.542Z,25.84
2017-08-06T18:55:06.182Z,25.84
2017-08-06T18:56:07.019Z,25.84
2017-08-06T18:57:07.661Z,25.85
2017-08-06T18:58:08.307Z,25.80
2017-08-06T18:59:08.893Z,25.87
2017-08-06T19:00:09.538Z,25.90
2017-08-06T19:01:10.182Z,25.85
2017-08-06T19:02:10.825Z,25.84
2017-08-06T19:03:11.468Z,25.83
2017-08-06T19:04:12.311Z,25.75
2017-08-06T19:05:12.953Z,25.84
2017-08-06T19:06:13.547Z,25.85
2017-08-06T19:07:14.187Z,25.80
2017-08-06T19:08:14.824Z,25.81
2017-08-06T19:09:15.469Z,25.83
2017-08-06T19:10:16.112Z,25.80
2017-08-06T19:11:16.755Z,25.78
2017-08-06T19:12:17.390Z,25.81
2017-08-06T19:13:18.280Z,25.80
2017-08-06T19:14:18.922Z,25.73
2017-08-06T19:15:19.569Z,25.75
2017-08-06T19:16:20.203Z,25.70
2017-08-06T19:17:20.847Z,25.65
2017-08-06T19:18:21.483Z,25.63
2017-08-06T19:19:22.122Z,25.72
2017-08-06T19:20:22.762Z,25.63
2017-08-06T19:21:23.699Z,25.59
2017-08-06T19:22:24.342Z,25.69
2017-08-06T19:23:24.985Z,25.59
2017-08-06T19:24:25.628Z,25.72
2017-08-06T19:25:26.262Z,25.59
2017-08-06T19:26:26.901Z,25.55
2017-08-06T19:27:27.551Z,25.60
2017-08-06T19:28:28.188Z,25.50
2017-08-06T19:29:28.977Z,25.50
2017-08-06T19:30:29.617Z,25.46
2017-08-06T19:31:30.256Z,25.44
2017-08-06T19:32:30.892Z,25.48
2017-08-06T19:33:31.528Z,25.44
2017-08-06T19:34:32.168Z,25.36
2017-08-06T19:35:32.810Z,25.35
2017-08-06T19:36:33.449Z,25.33
2017-08-06T19:37:34.485Z,25.36
2017-08-06T19:38:35.123Z,25.33
2017-08-06T19:39:35.766Z,25.35
2017-08-06T19:40:36.402Z,25.38
2017-08-06T19:41:37.038Z,25.17
2017-08-06T19:42:37.682Z,25.22
2017-08-06T19:43:38.318Z,25.26
2017-08-06T19:44:38.962Z,25.25
2017-08-06T19:45:39.598Z,25.23
2017-08-06T19:46:40.387Z,25.13
2017-08-06T19:47:41.026Z,25.22
2017-08-06T19:48:41.665Z,25.22
2017-08-06T19:49:42.299Z,25.14
2017-08-06T19:50:42.949Z,25.16
2017-08-06T19:51:43.643Z,25.11
2017-08-06T19:52:44.283Z,25.17
2017-08-06T19:53:44.919Z,25.14
2017-08-06T19:54:45.805Z,25.18
2017-08-06T19:55:46.452Z,25.16
2017-08-06T19:56:47.087Z,25.13
2017-08-06T19:57:47.735Z,25.13
2017-08-06T19:58:48.372Z,25.11
2017-08-06T19:59:49.006Z,25.07
2017-08-06T20:00:49.649Z,25.08
2017-08-06T20:01:50.290Z,25.03
2017-08-06T20:02:51.082Z,25.03
2017-08-06T20:03:51.718Z,25.03
2017-08-06T20:04:52.362Z,25.03
2017-08-06T20:05:53.000Z,25.01
2017-08-06T20:06:53.638Z,24.96
2017-08-06T20:07:54.276Z,24.95
2017-08-06T20:08:54.913Z,24.92
2017-08-06T20:09:55.550Z,24.86
2017-08-06T20:10:56.448Z,24.86
2017-08-06T20:11:57.084Z,24.91
2017-08-06T20:12:57.723Z,24.88
2017-08-06T20:13:58.361Z,24.88
2017-08-06T20:14:58.999Z,24.89
2017-08-06T20:15:59.642Z,24.88
2017-08-06T20:17:00.277Z,24.91
2017-08-06T20:18:00.914Z,24.76
2017-08-06T20:19:01.764Z,24.68
2017-08-06T20:20:02.401Z,24.69
2017-08-06T20:21:03.036Z,24.68
2017-08-06T20:22:03.673Z,24.68
2017-08-06T20:23:04.317Z,24.76
2017-08-06T20:24:04.961Z,24.65
2017-08-06T20:25:05.593Z,24.69
2017-08-06T20:26:06.244Z,24.58
2017-08-06T20:27:06.878Z,24.57
2017-08-06T20:28:07.872Z,24.63
2017-08-06T20:29:08.506Z,24.58
2017-08-06T20:30:09.149Z,24.57
2017-08-06T20:31:09.783Z,24.58
2017-08-06T20:32:10.422Z,24.66
2017-08-06T20:33:11.059Z,24.61
2017-08-06T20:34:11.697Z,24.55
2017-08-06T20:35:12.338Z,24.60
2017-08-06T20:36:13.132Z,24.65
2017-08-06T20:37:13.778Z,24.60
2017-08-06T20:38:14.414Z,24.63
2017-08-06T20:39:15.007Z,24.63
2017-08-06T20:40:15.703Z,24.57
2017-08-06T20:41:16.344Z,24.58
2017-08-06T20:42:16.987Z,24.61
2017-08-06T20:43:17.622Z,24.58
2017-08-06T20:44:18.463Z,24.60
2017-08-06T20:45:19.104Z,24.61
2017-08-06T20:46:19.745Z,24.60
2017-08-06T20:47:20.378Z,24.58